Time;durP1;ratioP1;P1;durP2;ratioP2;P2;SDS_P1;SDS_P2;PMS_P1;PMS_P2;Temp;Humidity;BMP_temperature;BMP_pressure;BME280_temperature;BME280_humidity;BME280_pressure;Samples;Min_cycle;Max_cycle;Signal;HPM_P1;HPM_P2
2021/10/31 00:00:14;;;;;;;;;;;12.80;98.00;;;;;;5033319;28;20133;-74
2021/10/31 00:02:40;;;;;;;;;;;12.90;98.20;;;;;;5035617;28;19913;-74
2021/10/31 00:05:06;;;;;;;;;;;12.90;98.10;;;;;;5035241;28;19913;-74
2021/10/31 00:07:31;;;;;;;;;;;12.90;97.90;;;;;;5016631;28;19987;-74
2021/10/31 00:09:56;;;;;;;;;;;12.90;98.00;;;;;;5036375;28;19917;-74
2021/10/31 00:12:22;;;;;;;;;;;13.00;97.90;;;;;;5039220;28;19952;-74
2021/10/31 00:14:47;;;;;;;;;;;13.00;98.00;;;;;;5039048;28;19917;-73
2021/10/31 00:17:13;;;;;;;;;;;13.00;97.90;;;;;;5038950;28;19920;-73
2021/10/31 00:19:38;;;;;;;;;;;13.10;97.90;;;;;;5038162;28;19963;-73
2021/10/31 00:22:04;;;;;;;;;;;13.10;97.90;;;;;;5022406;28;19917;-73
2021/10/31 00:24:30;;;;;;;;;;;13.00;97.80;;;;;;5037666;28;19960;-74
2021/10/31 00:26:55;;;;;;;;;;;13.00;97.90;;;;;;5038522;28;20188;-74
2021/10/31 00:29:21;;;;;;;;;;;13.00;97.90;;;;;;5034873;28;20384;-74
2021/10/31 00:31:46;;;;;;;;;;;13.00;97.90;;;;;;5037571;28;20028;-74
2021/10/31 00:34:11;;;;;;;;;;;13.00;98.00;;;;;;5020167;28;19963;-74
2021/10/31 00:36:37;;;;;;;;;;;13.00;98.00;;;;;;5020396;28;20359;-74
2021/10/31 00:39:05;;;;;;;;;;;13.10;98.00;;;;;;5038228;28;19935;-74
2021/10/31 00:41:32;;;;;;;;;;;13.10;98.00;;;;;;5019438;28;19912;-74
2021/10/31 00:43:57;;;;;;;;;;;13.10;97.90;;;;;;5038079;28;19940;-74
2021/10/31 00:46:22;;;;;;;;;;;13.10;98.00;;;;;;5017259;28;19932;-74
2021/10/31 00:48:48;;;;;;;;;;;13.10;98.00;;;;;;5038141;28;20191;-74
2021/10/31 00:51:14;;;;;;;;;;;13.00;97.90;;;;;;5034649;28;20450;-75
2021/10/31 00:53:42;;;;;;;;;;;13.00;97.90;;;;;;5037520;28;19945;-74
2021/10/31 00:56:08;;;;;;;;;;;13.00;98.00;;;;;;5035237;28;19987;-74
2021/10/31 00:58:33;;;;;;;;;;;13.00;98.00;;;;;;5022006;28;19921;-75
2021/10/31 01:00:59;;;;;;;;;;;13.00;98.00;;;;;;5039627;28;19977;-74
2021/10/31 01:03:24;;;;;;;;;;;13.00;98.10;;;;;;5041461;28;19913;-74
2021/10/31 01:05:52;;;;;;;;;;;13.00;98.10;;;;;;5042367;28;19920;-74
2021/10/31 01:08:23;;;;;;;;;;;13.10;98.20;;;;;;5040493;28;20249;-74
2021/10/31 01:11:04;;;;;;;;;;;13.10;98.10;;;;;;5036566;28;20388;-74
2021/10/31 01:13:41;;;;;;;;;;;13.10;98.10;;;;;;5037421;28;19913;-74
2021/10/31 01:16:12;;;;;;;;;;;13.10;98.20;;;;;;5036052;28;20378;-74
2021/10/31 01:18:41;;;;;;;;;;;13.10;98.20;;;;;;5018322;28;20379;-74
2021/10/31 01:21:25;;;;;;;;;;;13.20;98.20;;;;;;5034680;28;19932;-74
2021/10/31 01:24:06;;;;;;;;;;;13.20;98.20;;;;;;5036491;28;20244;-74
2021/10/31 01:26:38;;;;;;;;;;;13.20;98.20;;;;;;5035725;28;19924;-74
2021/10/31 01:29:13;;;;;;;;;;;13.20;98.20;;;;;;5036044;28;20012;-74
2021/10/31 01:31:47;;;;;;;;;;;13.20;98.20;;;;;;5036261;28;19995;-74
2021/10/31 01:34:21;;;;;;;;;;;13.20;98.20;;;;;;5036276;28;19956;-74
2021/10/31 01:36:49;;;;;;;;;;;13.20;98.10;;;;;;5034600;28;19920;-74
2021/10/31 01:39:21;;;;;;;;;;;13.20;98.20;;;;;;5037298;28;20394;-74
2021/10/31 01:41:57;;;;;;;;;;;13.20;98.20;;;;;;5036354;28;19917;-74
2021/10/31 01:44:45;;;;;;;;;;;13.20;98.20;;;;;;5033871;28;19987;-74
2021/10/31 01:47:14;;;;;;;;;;;13.20;98.30;;;;;;5036484;28;19913;-74
2021/10/31 01:49:42;;;;;;;;;;;13.20;98.30;;;;;;5036736;28;19920;-74
2021/10/31 01:52:13;;;;;;;;;;;13.20;98.30;;;;;;5018956;28;19912;-74
2021/10/31 01:54:49;;;;;;;;;;;13.20;98.30;;;;;;5036723;28;19920;-74
2021/10/31 01:57:17;;;;;;;;;;;13.20;98.40;;;;;;5035867;28;19948;-74
2021/10/31 01:59:46;;;;;;;;;;;13.10;98.30;;;;;;5035786;28;19916;-74
2021/10/31 02:02:12;;;;;;;;;;;13.10;98.40;;;;;;5034742;28;19920;-74
2021/10/31 02:04:38;;;;;;;;;;;13.10;98.30;;;;;;5034729;28;20303;-75
2021/10/31 02:07:05;;;;;;;;;;;13.10;98.50;;;;;;5035999;28;20458;-74
2021/10/31 02:09:31;;;;;;;;;;;13.10;98.50;;;;;;5034777;28;19920;-74
2021/10/31 02:11:57;;;;;;;;;;;13.10;98.40;;;;;;5034844;28;19999;-74
2021/10/31 02:14:24;;;;;;;;;;;13.00;98.40;;;;;;5036776;28;19931;-74
2021/10/31 02:16:50;;;;;;;;;;;13.00;98.40;;;;;;5036077;28;19917;-74
2021/10/31 02:19:17;;;;;;;;;;;13.00;98.50;;;;;;5037067;28;19924;-74
2021/10/31 02:21:45;;;;;;;;;;;13.00;98.70;;;;;;5033036;28;19924;-74
2021/10/31 02:24:10;;;;;;;;;;;13.00;98.70;;;;;;5036649;28;19913;-74
2021/10/31 02:26:36;;;;;;;;;;;13.10;98.90;;;;;;5034983;28;20391;-74
2021/10/31 02:29:06;;;;;;;;;;;13.10;98.60;;;;;;5035688;28;19917;-74
2021/10/31 02:31:31;;;;;;;;;;;13.10;98.80;;;;;;5035555;28;20028;-74
2021/10/31 02:33:57;;;;;;;;;;;13.10;98.70;;;;;;5036240;28;20004;-74
2021/10/31 02:36:23;;;;;;;;;;;13.10;98.70;;;;;;5031192;28;20356;-74
2021/10/31 02:38:49;;;;;;;;;;;13.20;98.60;;;;;;5036023;28;19985;-74
2021/10/31 02:41:14;;;;;;;;;;;13.20;98.70;;;;;;5032917;28;19942;-74
2021/10/31 02:43:40;;;;;;;;;;;13.20;98.70;;;;;;5035659;28;20047;-74
2021/10/31 02:46:05;;;;;;;;;;;13.20;98.70;;;;;;5016180;28;19921;-74
2021/10/31 02:48:31;;;;;;;;;;;13.20;98.70;;;;;;5036630;28;19913;-74
2021/10/31 02:51:16;;;;;;;;;;;13.20;98.70;;;;;;5033315;28;20344;-74
2021/10/31 02:53:51;;;;;;;;;;;13.20;98.70;;;;;;5035871;28;19913;-74
2021/10/31 02:56:33;;;;;;;;;;;13.20;98.70;;;;;;5017707;28;20419;-74
2021/10/31 02:59:05;;;;;;;;;;;13.20;98.70;;;;;;5033698;28;19917;-74
2021/10/31 03:01:31;;;;;;;;;;;13.20;98.70;;;;;;5035295;28;19993;-74
2021/10/31 03:03:57;;;;;;;;;;;13.20;98.80;;;;;;5035923;28;19917;-74
2021/10/31 03:06:23;;;;;;;;;;;13.20;98.90;;;;;;5034854;28;19983;-74
2021/10/31 03:08:49;;;;;;;;;;;13.20;98.80;;;;;;5034209;28;20751;-74
2021/10/31 03:11:15;;;;;;;;;;;13.20;98.90;;;;;;5036261;28;19913;-74
2021/10/31 03:13:41;;;;;;;;;;;13.20;98.90;;;;;;5035993;28;20192;-74
2021/10/31 03:16:07;;;;;;;;;;;13.20;98.90;;;;;;5033210;28;20046;-74
2021/10/31 03:18:32;;;;;;;;;;;13.20;98.90;;;;;;5036462;28;20388;-74
2021/10/31 03:20:58;;;;;;;;;;;13.20;99.10;;;;;;5034122;28;19929;-75
2021/10/31 03:23:23;;;;;;;;;;;13.20;99.00;;;;;;5036144;28;19920;-74
2021/10/31 03:25:49;;;;;;;;;;;13.20;99.00;;;;;;5034615;28;19913;-74
2021/10/31 03:28:14;;;;;;;;;;;13.20;99.00;;;;;;5034315;28;19913;-73
2021/10/31 03:30:40;;;;;;;;;;;13.20;99.00;;;;;;5035372;28;19917;-74
2021/10/31 03:33:05;;;;;;;;;;;13.20;99.00;;;;;;5034845;28;19917;-73
2021/10/31 03:35:31;;;;;;;;;;;13.10;99.00;;;;;;5034533;28;19920;-73
2021/10/31 03:37:57;;;;;;;;;;;13.20;99.00;;;;;;5034488;28;19917;-73
2021/10/31 03:40:22;;;;;;;;;;;13.20;99.10;;;;;;5016514;28;20249;-73
2021/10/31 03:42:48;;;;;;;;;;;13.20;99.00;;;;;;5034624;28;19916;-73
2021/10/31 03:45:14;;;;;;;;;;;13.20;98.90;;;;;;5019751;28;19923;-73
2021/10/31 03:47:48;;;;;;;;;;;13.20;98.90;;;;;;5036177;28;19917;-73
2021/10/31 03:50:18;;;;;;;;;;;13.20;98.90;;;;;;5038177;28;19920;-73
2021/10/31 03:52:44;;;;;;;;;;;13.20;99.00;;;;;;5039524;28;19916;-73
2021/10/31 03:55:10;;;;;;;;;;;13.20;99.00;;;;;;5037492;28;19924;-73
2021/10/31 03:57:36;;;;;;;;;;;13.20;99.10;;;;;;5039823;28;19913;-73
2021/10/31 04:00:06;;;;;;;;;;;13.20;99.10;;;;;;5036921;28;19913;-73
2021/10/31 04:02:31;;;;;;;;;;;13.20;99.10;;;;;;5039409;28;19917;-73
2021/10/31 04:04:57;;;;;;;;;;;13.20;99.10;;;;;;5037016;28;19913;-74
2021/10/31 04:07:22;;;;;;;;;;;13.20;99.20;;;;;;5039327;28;19920;-72
2021/10/31 04:09:48;;;;;;;;;;;13.20;99.20;;;;;;5038585;28;20022;-73
2021/10/31 04:12:13;;;;;;;;;;;13.20;99.10;;;;;;5022001;28;19921;-73
2021/10/31 04:14:39;;;;;;;;;;;13.30;99.30;;;;;;5021775;28;19922;-73
2021/10/31 04:17:04;;;;;;;;;;;13.30;99.20;;;;;;5017970;28;20000;-72
2021/10/31 04:19:30;;;;;;;;;;;13.30;99.30;;;;;;5038801;28;20372;-72
2021/10/31 04:21:55;;;;;;;;;;;13.30;99.20;;;;;;5036244;28;20015;-72
2021/10/31 04:24:21;;;;;;;;;;;13.30;99.20;;;;;;5039214;28;19916;-72
2021/10/31 04:26:50;;;;;;;;;;;13.30;99.20;;;;;;5019120;28;20331;-73
2021/10/31 04:29:15;;;;;;;;;;;13.30;99.30;;;;;;5039247;28;20466;-73
2021/10/31 04:31:41;;;;;;;;;;;13.30;99.20;;;;;;5036498;28;20075;-72
2021/10/31 04:34:06;;;;;;;;;;;13.30;99.30;;;;;;5039000;28;19912;-73
2021/10/31 04:36:32;;;;;;;;;;;13.40;99.40;;;;;;5017997;28;19924;-73
2021/10/31 04:38:57;;;;;;;;;;;13.30;99.30;;;;;;5036816;28;20280;-73
2021/10/31 04:41:25;;;;;;;;;;;13.40;99.40;;;;;;5035636;28;19917;-73
2021/10/31 04:43:50;;;;;;;;;;;13.40;99.30;;;;;;5038856;28;19931;-72
2021/10/31 04:46:16;;;;;;;;;;;13.40;99.30;;;;;;5035539;28;20291;-72
2021/10/31 04:48:41;;;;;;;;;;;13.40;99.40;;;;;;5038027;28;19909;-73
2021/10/31 04:51:07;;;;;;;;;;;13.40;99.50;;;;;;5037336;28;20302;-73
2021/10/31 04:53:33;;;;;;;;;;;13.40;99.50;;;;;;5036481;28;19916;-73
2021/10/31 04:55:58;;;;;;;;;;;13.40;99.50;;;;;;5035464;28;19944;-72
2021/10/31 04:58:24;;;;;;;;;;;13.40;99.50;;;;;;5039107;28;20027;-72
2021/10/31 05:00:50;;;;;;;;;;;13.40;99.40;;;;;;5037070;28;19917;-72
2021/10/31 05:03:15;;;;;;;;;;;13.40;99.60;;;;;;5038026;28;20140;-72
2021/10/31 05:05:41;;;;;;;;;;;13.30;99.50;;;;;;5036915;28;20004;-73
2021/10/31 05:08:06;;;;;;;;;;;13.30;99.50;;;;;;5037190;28;20390;-73
2021/10/31 05:10:32;;;;;;;;;;;13.30;99.60;;;;;;5035915;28;19916;-73
2021/10/31 05:12:57;;;;;;;;;;;13.20;99.60;;;;;;5037834;28;19972;-72
2021/10/31 05:15:23;;;;;;;;;;;13.10;99.50;;;;;;5036125;28;19951;-72
2021/10/31 05:17:49;;;;;;;;;;;13.10;99.60;;;;;;5037201;28;20054;-73
2021/10/31 05:20:15;;;;;;;;;;;13.00;99.60;;;;;;5036507;28;19936;-73
2021/10/31 05:22:40;;;;;;;;;;;12.90;99.60;;;;;;5036659;28;19913;-73
2021/10/31 05:25:06;;;;;;;;;;;12.90;99.80;;;;;;5036156;28;20066;-72
2021/10/31 05:27:32;;;;;;;;;;;12.80;99.80;;;;;;5036189;28;19921;-72
2021/10/31 05:29:57;;;;;;;;;;;12.80;99.90;;;;;;5037294;28;20006;-72
2021/10/31 05:32:24;;;;;;;;;;;12.80;99.90;;;;;;5018044;28;20020;-72
2021/10/31 05:34:50;;;;;;;;;;;12.80;99.90;;;;;;5018664;28;19917;-72
2021/10/31 05:37:15;;;;;;;;;;;12.80;99.90;;;;;;5036830;28;19924;-72
2021/10/31 05:39:41;;;;;;;;;;;12.80;99.90;;;;;;5036443;28;19917;-72
2021/10/31 05:42:06;;;;;;;;;;;12.90;99.90;;;;;;5019310;28;20047;-73
2021/10/31 05:44:32;;;;;;;;;;;12.90;99.90;;;;;;5037082;28;19921;-72
2021/10/31 05:46:57;;;;;;;;;;;12.90;99.90;;;;;;5036450;28;19917;-73
2021/10/31 05:49:22;;;;;;;;;;;12.90;99.90;;;;;;5036218;28;19920;-72
2021/10/31 05:51:48;;;;;;;;;;;12.80;99.90;;;;;;5018371;28;19917;-73
2021/10/31 05:54:13;;;;;;;;;;;12.80;99.90;;;;;;5036262;28;19932;-73
2021/10/31 05:56:39;;;;;;;;;;;12.80;99.90;;;;;;5038060;28;20328;-72
2021/10/31 05:59:04;;;;;;;;;;;12.80;99.90;;;;;;5034579;28;20357;-73
2021/10/31 06:01:30;;;;;;;;;;;12.80;99.90;;;;;;5036337;28;20283;-73
2021/10/31 06:03:56;;;;;;;;;;;12.80;99.90;;;;;;5036269;28;19923;-73
2021/10/31 06:06:23;;;;;;;;;;;12.70;99.90;;;;;;5035118;28;20400;-73
2021/10/31 06:08:49;;;;;;;;;;;12.70;99.90;;;;;;5035818;28;20342;-73
2021/10/31 06:11:15;;;;;;;;;;;12.80;99.90;;;;;;5036001;28;20003;-73
2021/10/31 06:13:40;;;;;;;;;;;12.80;99.90;;;;;;5017132;28;20004;-73
2021/10/31 06:16:07;;;;;;;;;;;12.80;99.90;;;;;;5034922;28;19975;-73
2021/10/31 06:18:33;;;;;;;;;;;12.80;99.90;;;;;;5017440;28;19929;-73
2021/10/31 06:20:59;;;;;;;;;;;12.80;99.90;;;;;;5034158;28;19924;-72
2021/10/31 06:23:24;;;;;;;;;;;12.80;99.90;;;;;;5036859;28;19943;-72
2021/10/31 06:25:49;;;;;;;;;;;12.80;99.90;;;;;;5034302;28;20011;-72
2021/10/31 06:28:15;;;;;;;;;;;12.80;99.90;;;;;;5036566;28;19913;-73
2021/10/31 06:30:40;;;;;;;;;;;12.80;99.90;;;;;;5034238;28;19997;-73
2021/10/31 06:33:06;;;;;;;;;;;12.80;99.90;;;;;;5036553;28;19947;-73
2021/10/31 06:35:31;;;;;;;;;;;12.80;99.90;;;;;;5033549;28;19964;-72
2021/10/31 06:38:00;;;;;;;;;;;12.80;99.90;;;;;;5034917;28;21381;-72
2021/10/31 06:40:26;;;;;;;;;;;12.80;99.90;;;;;;5019739;28;19962;-72
2021/10/31 06:42:52;;;;;;;;;;;12.80;99.90;;;;;;5033623;28;19917;-73
2021/10/31 06:45:18;;;;;;;;;;;12.90;99.90;;;;;;5018484;28;19920;-73
2021/10/31 06:47:43;;;;;;;;;;;12.80;99.90;;;;;;5035171;28;20358;-73
2021/10/31 06:50:09;;;;;;;;;;;12.80;99.90;;;;;;5018500;28;19920;-73
2021/10/31 06:52:34;;;;;;;;;;;12.80;99.90;;;;;;5017150;28;20006;-72
2021/10/31 06:55:00;;;;;;;;;;;12.80;99.90;;;;;;5016643;28;20003;-65
2021/10/31 06:57:26;;;;;;;;;;;12.90;99.90;;;;;;5036372;28;19941;-66
2021/10/31 06:59:51;;;;;;;;;;;13.00;99.90;;;;;;5035194;28;19978;-71
2021/10/31 07:02:17;;;;;;;;;;;13.10;99.90;;;;;;5036636;28;19917;-70
2021/10/31 07:04:42;;;;;;;;;;;13.10;99.90;;;;;;5032149;28;19917;-73
2021/10/31 07:07:07;;;;;;;;;;;13.00;99.90;;;;;;5017957;28;19916;-74
2021/10/31 07:09:33;;;;;;;;;;;13.00;99.90;;;;;;5035837;28;19919;-74
2021/10/31 07:11:59;;;;;;;;;;;12.90;99.90;;;;;;5035655;28;20244;-74
2021/10/31 07:14:25;;;;;;;;;;;12.90;99.90;;;;;;5035304;28;19987;-73
2021/10/31 07:16:50;;;;;;;;;;;12.90;99.90;;;;;;5039020;28;19917;-73
2021/10/31 07:19:17;;;;;;;;;;;12.80;99.90;;;;;;5046788;28;19917;-72
2021/10/31 07:21:44;;;;;;;;;;;12.80;99.90;;;;;;5046302;28;19916;-75
2021/10/31 07:24:09;;;;;;;;;;;12.80;99.90;;;;;;5048379;28;20520;-74
2021/10/31 07:26:35;;;;;;;;;;;12.70;99.90;;;;;;5038577;28;19920;-75
2021/10/31 07:29:01;;;;;;;;;;;12.70;99.90;;;;;;5040663;28;20063;-75
2021/10/31 07:31:27;;;;;;;;;;;12.70;99.90;;;;;;5038724;28;19919;-74
2021/10/31 07:33:54;;;;;;;;;;;12.70;99.90;;;;;;5023072;28;19924;-74
2021/10/31 07:36:19;;;;;;;;;;;12.70;99.90;;;;;;5036880;28;19925;-74
2021/10/31 07:38:44;;;;;;;;;;;12.80;99.90;;;;;;5021569;28;19978;-74
2021/10/31 07:41:11;;;;;;;;;;;12.80;99.90;;;;;;5038018;28;19916;-70
2021/10/31 07:43:36;;;;;;;;;;;12.80;99.90;;;;;;5039384;28;19913;-71
2021/10/31 07:46:02;;;;;;;;;;;12.80;99.90;;;;;;5038992;28;19920;-70
2021/10/31 07:48:28;;;;;;;;;;;12.80;99.90;;;;;;5038347;28;19988;-70
2021/10/31 07:50:54;;;;;;;;;;;12.80;99.90;;;;;;5037150;28;19924;-71
2021/10/31 07:53:19;;;;;;;;;;;12.90;99.90;;;;;;5020237;28;19916;-70
2021/10/31 07:55:50;;;;;;;;;;;12.90;99.90;;;;;;5022570;28;19923;-73
2021/10/31 07:58:19;;;;;;;;;;;12.90;99.90;;;;;;5035113;28;19950;-75
2021/10/31 08:00:45;;;;;;;;;;;12.90;99.90;;;;;;5036486;28;19936;-75
2021/10/31 08:03:11;;;;;;;;;;;12.90;99.90;;;;;;5018855;28;20394;-75
2021/10/31 08:05:38;;;;;;;;;;;12.90;99.90;;;;;;5037350;28;19991;-75
2021/10/31 08:08:03;;;;;;;;;;;13.00;99.90;;;;;;5035697;28;19913;-75
2021/10/31 08:10:29;;;;;;;;;;;13.10;99.90;;;;;;5033725;28;19921;-75
2021/10/31 08:12:54;;;;;;;;;;;13.20;99.90;;;;;;5037637;28;20282;-75
2021/10/31 08:15:20;;;;;;;;;;;13.30;99.90;;;;;;5037040;28;19917;-75
2021/10/31 08:17:45;;;;;;;;;;;13.30;99.90;;;;;;5037249;28;20401;-75
2021/10/31 08:20:11;;;;;;;;;;;13.50;99.90;;;;;;5035910;28;19924;-75
2021/10/31 08:22:37;;;;;;;;;;;13.50;99.90;;;;;;5039007;28;20291;-75
2021/10/31 08:25:03;;;;;;;;;;;13.60;99.90;;;;;;5021242;28;19912;-75
2021/10/31 08:27:29;;;;;;;;;;;13.60;99.80;;;;;;5039049;28;20364;-75
2021/10/31 08:29:54;;;;;;;;;;;13.70;99.80;;;;;;5037941;28;20021;-75
2021/10/31 08:32:23;;;;;;;;;;;13.70;99.70;;;;;;5038747;28;19916;-76
2021/10/31 08:34:48;;;;;;;;;;;13.70;99.60;;;;;;5037309;28;19999;-76
2021/10/31 08:37:14;;;;;;;;;;;13.70;99.50;;;;;;5020768;28;20395;-75
2021/10/31 08:39:39;;;;;;;;;;;13.80;99.50;;;;;;5039095;28;20360;-76
2021/10/31 08:42:06;;;;;;;;;;;13.80;99.40;;;;;;5021442;28;19935;-76
2021/10/31 08:44:34;;;;;;;;;;;13.80;99.40;;;;;;5004763;28;19915;-76
2021/10/31 08:47:00;;;;;;;;;;;13.90;99.40;;;;;;5037860;28;19952;-76
2021/10/31 08:49:25;;;;;;;;;;;13.90;99.40;;;;;;5037535;28;19944;-76
2021/10/31 08:51:50;;;;;;;;;;;14.00;99.30;;;;;;5037497;28;19939;-76
2021/10/31 08:54:16;;;;;;;;;;;14.10;99.20;;;;;;5038413;28;19962;-76
2021/10/31 08:56:42;;;;;;;;;;;14.20;99.20;;;;;;5021468;28;19913;-76
2021/10/31 08:59:08;;;;;;;;;;;14.20;99.10;;;;;;5038437;28;20046;-76
2021/10/31 09:01:34;;;;;;;;;;;14.30;99.10;;;;;;5038528;28;19917;-77
2021/10/31 09:04:00;;;;;;;;;;;14.40;99.00;;;;;;5039217;28;20287;-78
2021/10/31 09:06:26;;;;;;;;;;;14.50;98.80;;;;;;5040471;28;19923;-75
2021/10/31 09:08:52;;;;;;;;;;;14.60;98.60;;;;;;5022001;28;19917;-76
2021/10/31 09:11:17;;;;;;;;;;;14.60;98.60;;;;;;5036611;28;19913;-76
2021/10/31 09:13:43;;;;;;;;;;;14.70;98.60;;;;;;5039013;28;20371;-76
2021/10/31 09:16:08;;;;;;;;;;;14.70;98.50;;;;;;5020378;28;20402;-76
2021/10/31 09:18:34;;;;;;;;;;;14.80;98.40;;;;;;5039476;28;19968;-76
2021/10/31 09:21:00;;;;;;;;;;;14.90;98.40;;;;;;5036644;28;19959;-77
2021/10/31 09:23:25;;;;;;;;;;;15.00;98.30;;;;;;5038557;28;19990;-76
2021/10/31 09:25:51;;;;;;;;;;;15.10;98.20;;;;;;5036821;28;19913;-76
2021/10/31 09:28:17;;;;;;;;;;;15.20;98.10;;;;;;5039587;28;19932;-76
2021/10/31 09:30:42;;;;;;;;;;;15.20;98.10;;;;;;5037599;28;19913;-76
2021/10/31 09:33:10;;;;;;;;;;;15.30;98.00;;;;;;5040034;28;19917;-76
2021/10/31 09:35:43;;;;;;;;;;;15.40;97.90;;;;;;5039333;28;19974;-76
2021/10/31 09:38:08;;;;;;;;;;;15.50;97.70;;;;;;5038625;28;19928;-76
2021/10/31 09:40:36;;;;;;;;;;;15.60;97.70;;;;;;5038211;28;19916;-76
2021/10/31 09:43:02;;;;;;;;;;;15.70;97.60;;;;;;5021643;28;19991;-76
2021/10/31 09:45:29;;;;;;;;;;;15.70;97.50;;;;;;5037592;28;19913;-76
2021/10/31 09:48:02;;;;;;;;;;;15.80;97.40;;;;;;5038463;28;20016;-76
2021/10/31 09:50:30;;;;;;;;;;;15.90;97.30;;;;;;5037594;28;19913;-76
2021/10/31 09:52:56;;;;;;;;;;;16.00;97.10;;;;;;5019807;28;20309;-76
2021/10/31 09:55:21;;;;;;;;;;;16.00;96.80;;;;;;5043026;28;19913;-76
2021/10/31 09:57:47;;;;;;;;;;;16.10;97.00;;;;;;5037213;28;19920;-76
2021/10/31 10:00:13;;;;;;;;;;;16.10;97.00;;;;;;5037781;28;19909;-76
2021/10/31 10:02:47;;;;;;;;;;;16.20;96.50;;;;;;5037373;28;19979;-76
2021/10/31 10:05:15;;;;;;;;;;;16.30;96.50;;;;;;5035934;28;20284;-76
2021/10/31 10:07:40;;;;;;;;;;;16.30;96.40;;;;;;5038574;28;19962;-76
2021/10/31 10:10:10;;;;;;;;;;;16.40;96.40;;;;;;5037860;28;20000;-77
2021/10/31 10:12:36;;;;;;;;;;;16.60;96.10;;;;;;5036945;28;20063;-75
2021/10/31 10:15:07;;;;;;;;;;;16.70;95.90;;;;;;5036330;28;20015;-77
2021/10/31 10:17:43;;;;;;;;;;;16.80;96.30;;;;;;5020779;28;19917;-77
2021/10/31 10:20:10;;;;;;;;;;;16.90;95.90;;;;;;5019138;28;19917;-77
2021/10/31 10:22:37;;;;;;;;;;;17.00;95.90;;;;;;5040382;28;20372;-77
2021/10/31 10:25:04;;;;;;;;;;;17.00;95.70;;;;;;5038629;28;19913;-77
2021/10/31 10:27:34;;;;;;;;;;;17.00;95.40;;;;;;5038207;28;20448;-77
2021/10/31 10:30:09;;;;;;;;;;;17.10;95.50;;;;;;5022641;28;19931;-77
2021/10/31 10:32:35;;;;;;;;;;;17.10;95.50;;;;;;5037267;28;19917;-77
2021/10/31 10:35:00;;;;;;;;;;;17.20;95.60;;;;;;5019838;28;19971;-77
2021/10/31 10:37:26;;;;;;;;;;;17.30;95.40;;;;;;5037603;28;19913;-77
2021/10/31 10:39:52;;;;;;;;;;;17.30;95.30;;;;;;5037075;28;19913;-77
2021/10/31 10:42:31;;;;;;;;;;;17.30;95.20;;;;;;5041035;28;19909;-77
2021/10/31 10:44:58;;;;;;;;;;;17.50;95.50;;;;;;5035723;28;19992;-78
2021/10/31 10:47:24;;;;;;;;;;;17.50;95.10;;;;;;5014527;28;19971;-78
2021/10/31 10:49:51;;;;;;;;;;;17.60;95.40;;;;;;5035390;28;19917;-78
2021/10/31 10:52:30;;;;;;;;;;;17.70;95.00;;;;;;5038622;28;19909;-78
2021/10/31 10:55:15;;;;;;;;;;;17.70;95.00;;;;;;5038496;28;19919;-78
2021/10/31 10:57:43;;;;;;;;;;;17.80;94.60;;;;;;5035347;28;20368;-75
2021/10/31 11:00:20;;;;;;;;;;;17.70;94.70;;;;;;5039644;28;19924;-73
2021/10/31 11:02:58;;;;;;;;;;;17.80;94.70;;;;;;5036793;28;20017;-74
2021/10/31 11:05:26;;;;;;;;;;;17.80;94.50;;;;;;5035810;28;19960;-74
2021/10/31 11:07:52;;;;;;;;;;;17.80;94.20;;;;;;5036942;28;19917;-74
2021/10/31 11:10:20;;;;;;;;;;;17.80;94.40;;;;;;5037937;28;19909;-75
2021/10/31 11:12:46;;;;;;;;;;;17.80;94.10;;;;;;5036155;28;19917;-74
2021/10/31 11:15:16;;;;;;;;;;;17.80;94.50;;;;;;5035837;28;19917;-74
2021/10/31 11:17:44;;;;;;;;;;;17.80;94.40;;;;;;5037319;28;19917;-74
2021/10/31 11:20:12;;;;;;;;;;;17.80;94.30;;;;;;5035784;28;20343;-74
2021/10/31 11:22:39;;;;;;;;;;;17.70;94.30;;;;;;5035112;28;19913;-74
2021/10/31 11:25:05;;;;;;;;;;;17.70;94.20;;;;;;5036498;28;19927;-74
2021/10/31 11:27:31;;;;;;;;;;;17.70;94.20;;;;;;5036946;28;19913;-74
2021/10/31 11:29:58;;;;;;;;;;;17.80;94.20;;;;;;5037464;28;19952;-74
2021/10/31 11:32:24;;;;;;;;;;;17.80;94.20;;;;;;5036618;28;19917;-74
2021/10/31 11:34:51;;;;;;;;;;;17.80;93.90;;;;;;5035587;28;20024;-74
2021/10/31 11:37:18;;;;;;;;;;;17.70;93.50;;;;;;5035208;28;19955;-74
2021/10/31 11:39:44;;;;;;;;;;;17.80;93.60;;;;;;5037277;28;19971;-74
2021/10/31 11:42:10;;;;;;;;;;;17.70;93.40;;;;;;5036660;28;20398;-74
2021/10/31 11:44:54;;;;;;;;;;;17.70;93.60;;;;;;5037504;28;19920;-74
2021/10/31 11:47:21;;;;;;;;;;;17.70;93.50;;;;;;5036461;28;20380;-74
2021/10/31 11:50:00;;;;;;;;;;;17.70;93.60;;;;;;5036053;28;19917;-74
2021/10/31 11:52:42;;;;;;;;;;;17.70;93.60;;;;;;5034684;28;20432;-74
2021/10/31 11:55:26;;;;;;;;;;;17.70;93.60;;;;;;5002468;28;20320;-74
2021/10/31 11:57:56;;;;;;;;;;;17.70;93.70;;;;;;5037005;28;20313;-74
2021/10/31 12:00:22;;;;;;;;;;;17.80;93.60;;;;;;5036480;28;19913;-74
2021/10/31 12:02:50;;;;;;;;;;;17.80;93.70;;;;;;5036229;28;20428;-74
2021/10/31 12:05:39;;;;;;;;;;;17.90;93.80;;;;;;5020145;28;20005;-74
2021/10/31 12:08:05;;;;;;;;;;;18.00;93.70;;;;;;5039810;28;19953;-74
2021/10/31 12:10:46;;;;;;;;;;;17.90;93.50;;;;;;5038310;28;20371;-74
2021/10/31 12:13:12;;;;;;;;;;;18.00;93.60;;;;;;5040960;28;19939;-74
2021/10/31 12:15:37;;;;;;;;;;;18.00;93.40;;;;;;5040481;28;19917;-74
2021/10/31 12:18:04;;;;;;;;;;;18.00;93.40;;;;;;5039956;28;20316;-75
2021/10/31 12:21:02;;;;;;;;;;;18.00;93.40;;;;;;5039545;28;20232;-75
2021/10/31 12:23:27;;;;;;;;;;;18.00;93.40;;;;;;5007008;28;19913;-74
2021/10/31 12:25:53;;;;;;;;;;;18.10;93.40;;;;;;5038673;28;20269;-74
2021/10/31 12:28:39;;;;;;;;;;;18.10;93.30;;;;;;5039507;28;20390;-74
2021/10/31 12:31:24;;;;;;;;;;;18.20;93.20;;;;;;5039455;28;19958;-75
2021/10/31 12:34:10;;;;;;;;;;;18.20;93.40;;;;;;5039017;28;20418;-75
2021/10/31 12:36:36;;;;;;;;;;;18.30;93.30;;;;;;5039397;28;20486;-75
2021/10/31 12:39:03;;;;;;;;;;;18.30;93.30;;;;;;5039054;28;19916;-75
2021/10/31 12:41:35;;;;;;;;;;;18.30;93.40;;;;;;5038902;28;20444;-74
2021/10/31 12:44:13;;;;;;;;;;;18.30;93.10;;;;;;5038028;28;19924;-75
2021/10/31 12:46:43;;;;;;;;;;;18.20;93.30;;;;;;5040426;28;19913;-74
2021/10/31 12:49:08;;;;;;;;;;;18.00;93.70;;;;;;5039625;28;20360;-74
2021/10/31 12:51:40;;;;;;;;;;;17.90;94.00;;;;;;5039321;28;19920;-75
2021/10/31 12:54:08;;;;;;;;;;;17.90;94.10;;;;;;5036206;28;19966;-75
2021/10/31 12:56:33;;;;;;;;;;;17.80;94.30;;;;;;5039381;28;20310;-75
2021/10/31 12:59:03;;;;;;;;;;;17.70;94.40;;;;;;5022398;28;19919;-75
2021/10/31 13:01:28;;;;;;;;;;;17.60;94.50;;;;;;5038071;28;19917;-74
2021/10/31 13:04:00;;;;;;;;;;;17.60;94.70;;;;;;5039610;28;19944;-74
2021/10/31 13:06:25;;;;;;;;;;;17.50;94.60;;;;;;5039082;28;20051;-75
2021/10/31 13:08:57;;;;;;;;;;;17.50;94.90;;;;;;5038832;28;19999;-75
2021/10/31 13:11:31;;;;;;;;;;;17.50;94.90;;;;;;5021219;28;20629;-75
2021/10/31 13:13:56;;;;;;;;;;;17.60;94.80;;;;;;5039040;28;19939;-75
2021/10/31 13:16:21;;;;;;;;;;;17.60;94.80;;;;;;5038272;28;19913;-75
2021/10/31 13:18:47;;;;;;;;;;;17.50;94.70;;;;;;5037621;28;19966;-75
2021/10/31 13:21:13;;;;;;;;;;;17.50;94.80;;;;;;5038489;28;19971;-75
2021/10/31 13:23:43;;;;;;;;;;;17.60;94.80;;;;;;5020458;28;19961;-75
2021/10/31 13:26:09;;;;;;;;;;;17.60;95.10;;;;;;5038912;28;19913;-75
2021/10/31 13:28:42;;;;;;;;;;;17.60;94.70;;;;;;5041931;28;19921;-75
2021/10/31 13:31:09;;;;;;;;;;;17.50;94.80;;;;;;5045340;28;19917;-75
2021/10/31 13:33:38;;;;;;;;;;;17.60;94.80;;;;;;5045297;28;20257;-75
2021/10/31 13:36:03;;;;;;;;;;;17.60;94.70;;;;;;5043149;28;19948;-75
2021/10/31 13:38:29;;;;;;;;;;;17.60;94.80;;;;;;5023917;28;20353;-75
2021/10/31 13:40:55;;;;;;;;;;;17.60;94.80;;;;;;5039744;28;19913;-75
2021/10/31 13:43:32;;;;;;;;;;;17.60;94.80;;;;;;5039039;28;19916;-75
2021/10/31 13:45:58;;;;;;;;;;;17.60;94.70;;;;;;5039125;28;20002;-75
2021/10/31 13:48:25;;;;;;;;;;;17.60;94.70;;;;;;5039940;28;19987;-75
2021/10/31 13:50:51;;;;;;;;;;;17.60;94.80;;;;;;5036877;28;19924;-74
2021/10/31 13:53:16;;;;;;;;;;;17.60;94.80;;;;;;5037835;28;19913;-75
2021/10/31 13:55:43;;;;;;;;;;;17.70;94.80;;;;;;5020402;28;20015;-75
2021/10/31 13:58:09;;;;;;;;;;;17.70;94.80;;;;;;5037847;28;19916;-75
2021/10/31 14:00:41;;;;;;;;;;;17.70;94.80;;;;;;5038175;28;19924;-75
2021/10/31 14:03:14;;;;;;;;;;;17.70;94.90;;;;;;5037242;28;19917;-75
2021/10/31 14:05:40;;;;;;;;;;;17.60;94.80;;;;;;5019095;28;20372;-75
2021/10/31 14:08:06;;;;;;;;;;;17.60;94.80;;;;;;5037076;28;19975;-74
2021/10/31 14:10:33;;;;;;;;;;;17.60;95.00;;;;;;5036581;28;20316;-75
2021/10/31 14:13:06;;;;;;;;;;;17.60;95.00;;;;;;5037441;28;19917;-74
2021/10/31 14:15:32;;;;;;;;;;;17.60;95.00;;;;;;5037787;28;20478;-74
2021/10/31 14:17:59;;;;;;;;;;;17.70;95.00;;;;;;5037423;28;19917;-74